Terminal Aerodrome Forecast
Issued by NWS

Current Version | Previous Version | Text Only | Print | Product List | Glossary On
Versions: 1 2 3 4 5 6 7 8 9 10 11 12 13 14
000
FTUS42 KTAE 251731
TAFVLD
TAF
KVLD 251731Z 2518/2618 21012KT P6SM SCT030 SCT100
     FM252300 20008KT P6SM BKN020
     FM260400 20004KT P6SM BKN007
      TEMPO 2610/2614 23003KT 2SM BR OVC001
     FM261500 26005KT P6SM BKN040=

USA.gov is the U.S. government's official web portal to all federal, state and local government web resources and services.